createdAt,value
2023-11-09T00:00:32.798Z,8.29
2023-11-09T00:03:05.950Z,8.16
2023-11-09T00:05:37.571Z,8.12
2023-11-09T00:08:09.146Z,8.02
2023-11-09T00:10:40.666Z,7.98
2023-11-09T00:13:12.288Z,8.07
2023-11-09T00:15:43.813Z,8.11
2023-11-09T00:18:15.368Z,8.11
2023-11-09T00:20:46.907Z,8.19
2023-11-09T00:23:19.203Z,8.20
2023-11-09T00:25:50.954Z,8.17
2023-11-09T00:28:22.530Z,7.94
2023-11-09T00:30:54.105Z,7.95
2023-11-09T00:33:26.100Z,8.05
2023-11-09T00:35:57.664Z,8.22
2023-11-09T00:38:29.191Z,8.26
2023-11-09T00:41:00.767Z,8.18
2023-11-09T00:43:32.322Z,8.15
2023-11-09T00:46:04.068Z,8.18
2023-11-09T00:48:35.710Z,8.14
2023-11-09T00:51:07.226Z,8.19
2023-11-09T00:53:38.773Z,8.22
2023-11-09T00:56:10.362Z,8.03
2023-11-09T00:58:41.992Z,7.92
2023-11-09T01:01:13.795Z,8.02
2023-11-09T01:03:45.371Z,8.00
2023-11-09T01:06:16.928Z,8.03
2023-11-09T01:08:48.461Z,7.83
2023-11-09T01:11:24.703Z,7.91
2023-11-09T01:13:56.277Z,8.06
2023-11-09T01:16:28.179Z,7.94
2023-11-09T01:18:59.812Z,8.01
2023-11-09T01:21:31.337Z,8.12
2023-11-09T01:24:02.862Z,8.16
2023-11-09T01:26:34.347Z,8.25
2023-11-09T01:29:05.851Z,8.38
2023-11-09T01:31:37.339Z,8.54
2023-11-09T01:34:13.014Z,8.56
2023-11-09T01:36:46.864Z,8.53
2023-11-09T01:39:18.413Z,8.35
2023-11-09T01:41:50.701Z,8.13
2023-11-09T01:44:22.240Z,8.01
2023-11-09T01:46:54.084Z,7.96
2023-11-09T01:49:25.993Z,7.97
2023-11-09T01:51:57.824Z,8.20
2023-11-09T01:54:35.554Z,8.14
2023-11-09T01:57:09.221Z,8.22
2023-11-09T01:59:46.019Z,8.14
2023-11-09T02:02:18.591Z,8.10
2023-11-09T02:04:50.777Z,8.06
2023-11-09T02:07:22.496Z,8.12
2023-11-09T02:09:54.086Z,8.08
2023-11-09T02:12:25.668Z,7.91
2023-11-09T02:14:58.169Z,7.95
2023-11-09T02:17:30.514Z,7.72
2023-11-09T02:20:02.956Z,7.81
2023-11-09T02:22:38.176Z,7.81
2023-11-09T02:25:10.629Z,7.82
2023-11-09T02:27:42.490Z,7.90
2023-11-09T02:30:14.325Z,8.09
2023-11-09T02:32:46.998Z,8.26
2023-11-09T02:35:18.969Z,8.46
2023-11-09T02:37:50.481Z,8.64
2023-11-09T02:40:22.046Z,8.29
2023-11-09T02:42:53.630Z,8.08
2023-11-09T02:45:25.214Z,8.14
2023-11-09T02:47:56.822Z,8.21
2023-11-09T02:50:28.397Z,8.01
2023-11-09T02:52:59.981Z,8.27
2023-11-09T02:55:31.510Z,8.33
2023-11-09T02:58:03.062Z,8.14
2023-11-09T03:00:34.555Z,8.06
2023-11-09T03:03:06.029Z,8.32
2023-11-09T03:05:37.562Z,8.29
2023-11-09T03:08:09.152Z,8.50
2023-11-09T03:10:41.340Z,8.64
2023-11-09T03:13:12.923Z,8.63
2023-11-09T03:15:44.508Z,8.36
2023-11-09T03:18:16.206Z,8.26
2023-11-09T03:20:47.966Z,8.39
2023-11-09T03:23:19.483Z,8.23
2023-11-09T03:25:50.944Z,8.36
2023-11-09T03:28:22.484Z,8.31
2023-11-09T03:30:54.109Z,8.09
2023-11-09T03:33:25.640Z,8.04
2023-11-09T03:35:57.906Z,8.01
2023-11-09T03:38:29.447Z,7.95
2023-11-09T03:41:01.129Z,7.95
2023-11-09T03:43:32.666Z,7.82
2023-11-09T03:46:04.404Z,7.92
2023-11-09T03:48:35.987Z,7.91
2023-11-09T03:51:08.958Z,8.10
2023-11-09T03:56:55.768Z,8.12
2023-11-09T03:59:27.736Z,7.98
2023-11-09T04:01:59.321Z,8.16
2023-11-09T04:04:30.918Z,8.15
2023-11-09T04:07:02.543Z,8.01
2023-11-09T04:09:34.146Z,7.81
2023-11-09T04:12:06.084Z,7.99
2023-11-09T04:14:37.576Z,8.04
2023-11-09T04:17:09.080Z,7.98
2023-11-09T04:19:41.804Z,8.16
2023-11-09T04:22:13.472Z,8.24
2023-11-09T04:24:44.964Z,8.25
2023-11-09T04:27:16.460Z,8.16
2023-11-09T04:29:48.665Z,8.27
2023-11-09T04:32:27.597Z,8.11
2023-11-09T04:34:59.174Z,8.24
2023-11-09T04:37:32.329Z,8.38
2023-11-09T04:40:04.191Z,8.36
2023-11-09T04:42:35.730Z,8.38
2023-11-09T04:45:07.653Z,8.19
2023-11-09T04:47:39.740Z,8.24
2023-11-09T04:50:11.605Z,8.19
2023-11-09T04:52:43.555Z,8.26
2023-11-09T04:55:15.388Z,8.23
2023-11-09T04:57:47.220Z,8.28
2023-11-09T05:00:18.832Z,8.32
2023-11-09T05:02:50.390Z,8.51
2023-11-09T05:05:22.030Z,8.54
2023-11-09T05:07:53.568Z,8.59
2023-11-09T05:10:25.128Z,8.48
2023-11-09T05:12:56.696Z,8.64
2023-11-09T05:15:28.205Z,8.66
2023-11-09T05:17:59.753Z,8.61
2023-11-09T05:20:31.313Z,8.70
2023-11-09T05:23:02.814Z,8.56
2023-11-09T05:25:34.363Z,8.75
2023-11-09T05:28:07.227Z,8.58
2023-11-09T05:30:38.864Z,8.61
2023-11-09T05:33:10.455Z,8.49
2023-11-09T05:35:42.066Z,8.38
2023-11-09T05:38:13.782Z,8.21
2023-11-09T05:40:45.468Z,7.90
2023-11-09T05:43:17.110Z,8.06
2023-11-09T05:45:48.656Z,8.02
2023-11-09T05:48:20.362Z,7.98
2023-11-09T05:50:52.770Z,7.85
2023-11-09T05:53:24.289Z,7.89
2023-11-09T05:55:56.497Z,7.76
2023-11-09T05:58:28.121Z,7.71
2023-11-09T06:00:59.674Z,7.60
2023-11-09T06:03:31.325Z,7.54
2023-11-09T06:06:03.057Z,7.43
2023-11-09T06:08:34.804Z,7.40
2023-11-09T06:11:06.395Z,7.46
2023-11-09T06:13:38.084Z,7.45
2023-11-09T06:16:10.160Z,7.47
2023-11-09T06:18:41.807Z,7.23
2023-11-09T06:21:13.469Z,7.22
2023-11-09T06:23:54.523Z,7.31
2023-11-09T06:26:26.459Z,7.35
2023-11-09T06:28:57.971Z,7.41
2023-11-09T06:31:29.595Z,7.53
2023-11-09T06:34:01.295Z,7.72
2023-11-09T06:36:32.982Z,7.87
2023-11-09T06:39:04.506Z,7.94
2023-11-09T06:41:36.114Z,8.03
2023-11-09T06:44:07.745Z,8.00
2023-11-09T06:46:39.592Z,8.00
2023-11-09T06:49:11.840Z,8.05
2023-11-09T06:51:43.405Z,8.28
2023-11-09T06:54:14.904Z,8.01
2023-11-09T06:56:46.425Z,8.19
2023-11-09T06:59:17.923Z,8.17
2023-11-09T07:01:49.442Z,8.17
2023-11-09T07:04:21.022Z,8.47
2023-11-09T07:06:52.639Z,8.44
2023-11-09T07:09:24.209Z,8.51
2023-11-09T07:11:55.813Z,8.56
2023-11-09T07:14:27.331Z,8.44
2023-11-09T07:16:58.887Z,8.58
2023-11-09T07:19:30.445Z,8.58
2023-11-09T07:22:02.108Z,8.40
2023-11-09T07:24:33.716Z,8.43
2023-11-09T07:27:05.614Z,8.49
2023-11-09T07:29:37.895Z,8.70
2023-11-09T07:32:09.531Z,8.68
2023-11-09T07:34:41.392Z,8.83
2023-11-09T07:37:13.056Z,8.89
2023-11-09T07:39:44.643Z,8.93
2023-11-09T07:42:16.160Z,9.03
2023-11-09T07:44:47.729Z,8.95
2023-11-09T07:47:19.436Z,9.00
2023-11-09T07:49:51.023Z,8.90
2023-11-09T07:52:22.712Z,9.00
2023-11-09T07:54:54.257Z,9.12
2023-11-09T07:57:25.745Z,9.24
2023-11-09T08:00:04.883Z,9.21
2023-11-09T08:02:37.339Z,9.15
2023-11-09T08:05:09.207Z,9.07
2023-11-09T08:07:41.843Z,9.11
2023-11-09T08:10:13.678Z,9.12
2023-11-09T08:12:45.344Z,9.12
2023-11-09T08:15:17.112Z,9.17
2023-11-09T08:17:48.844Z,9.08
2023-11-09T08:20:20.750Z,9.13
2023-11-09T08:22:52.332Z,9.13
2023-11-09T08:25:24.141Z,9.27
2023-11-09T08:27:55.719Z,9.33
2023-11-09T08:30:27.246Z,9.32
2023-11-09T08:32:58.868Z,9.45
2023-11-09T08:35:30.462Z,9.52
2023-11-09T08:38:02.029Z,9.80
2023-11-09T08:40:33.663Z,9.45
2023-11-09T08:43:05.230Z,9.48
2023-11-09T08:45:36.968Z,9.57
2023-11-09T08:48:08.698Z,9.59
2023-11-09T08:50:40.399Z,9.61
2023-11-09T08:53:12.501Z,9.61
2023-11-09T08:55:44.133Z,9.52
2023-11-09T08:58:15.719Z,9.42
2023-11-09T09:00:47.259Z,9.40
2023-11-09T09:03:18.801Z,9.45
2023-11-09T09:05:50.922Z,9.46
2023-11-09T09:08:23.262Z,9.47
2023-11-09T09:10:57.745Z,9.41
2023-11-09T09:13:29.383Z,9.42
2023-11-09T09:16:01.140Z,9.42
2023-11-09T09:18:32.765Z,9.51
2023-11-09T09:21:04.456Z,9.28
2023-11-09T09:23:36.580Z,9.21
2023-11-09T09:26:15.077Z,9.12
2023-11-09T09:28:47.982Z,9.27
2023-11-09T09:31:19.977Z,9.34
2023-11-09T09:34:05.528Z,9.24
2023-11-09T09:36:39.853Z,9.25
2023-11-09T09:39:11.424Z,9.30
2023-11-09T09:41:43.861Z,9.29
2023-11-09T09:44:17.660Z,9.14
2023-11-09T09:46:51.215Z,8.96
2023-11-09T09:49:22.877Z,8.93
2023-11-09T09:51:56.814Z,8.94
2023-11-09T09:54:29.915Z,8.94
2023-11-09T09:57:01.863Z,9.04
2023-11-09T09:59:35.243Z,8.83
2023-11-09T10:02:12.282Z,8.96
2023-11-09T10:04:43.954Z,8.91
2023-11-09T10:07:15.625Z,9.04
2023-11-09T10:09:47.149Z,9.09
2023-11-09T10:12:18.749Z,8.95
2023-11-09T10:14:50.355Z,9.08
2023-11-09T10:17:21.893Z,9.07
2023-11-09T10:19:53.549Z,8.85
2023-11-09T10:22:26.856Z,8.63
2023-11-09T10:24:58.605Z,8.88
2023-11-09T10:27:30.223Z,8.77
2023-11-09T10:30:01.786Z,8.75
2023-11-09T10:32:34.295Z,8.79
2023-11-09T10:35:06.498Z,8.63
2023-11-09T10:37:38.237Z,8.53
2023-11-09T10:40:11.488Z,8.37
2023-11-09T10:42:52.318Z,8.29
2023-11-09T10:45:27.573Z,8.37
2023-11-09T10:48:00.081Z,8.29
2023-11-09T10:50:31.736Z,8.16
2023-11-09T10:53:05.114Z,8.19
2023-11-09T10:55:38.825Z,8.18
2023-11-09T10:58:15.434Z,8.17
2023-11-09T11:00:50.364Z,8.02
2023-11-09T11:03:38.343Z,8.00
2023-11-09T11:06:11.535Z,8.09
2023-11-09T11:08:45.619Z,8.35
2023-11-09T11:11:20.666Z,8.60
2023-11-09T11:13:59.232Z,8.47
2023-11-09T11:17:01.709Z,8.46
2023-11-09T11:19:58.134Z,8.55
2023-11-09T11:22:57.539Z,8.42
2023-11-09T11:25:49.369Z,8.25
2023-11-09T11:28:20.987Z,8.44
2023-11-09T11:30:52.520Z,8.38
2023-11-09T11:33:24.064Z,8.36
2023-11-09T11:35:56.469Z,8.25
2023-11-09T11:38:32.542Z,8.12
2023-11-09T11:41:13.248Z,8.37
2023-11-09T11:43:48.329Z,8.28
2023-11-09T11:46:24.003Z,8.46
2023-11-09T11:48:55.566Z,8.60
2023-11-09T11:51:27.380Z,8.44
2023-11-09T11:54:07.877Z,8.72
2023-11-09T11:56:39.912Z,8.56
2023-11-09T11:59:11.483Z,8.56
2023-11-09T12:01:43.027Z,8.57
2023-11-09T12:04:14.733Z,8.48
2023-11-09T12:06:48.717Z,8.48
2023-11-09T12:09:20.540Z,8.62
2023-11-09T12:11:52.073Z,8.45
2023-11-09T12:14:23.634Z,8.50
2023-11-09T12:16:55.372Z,8.64
2023-11-09T12:19:26.947Z,8.69
2023-11-09T12:23:35.022Z,8.54
2023-11-09T12:26:06.718Z,8.47
2023-11-09T12:28:38.557Z,8.37
2023-11-09T12:31:10.272Z,8.60
2023-11-09T12:33:41.990Z,8.46
2023-11-09T12:36:13.463Z,8.48
2023-11-09T12:38:45.265Z,8.50
2023-11-09T12:41:24.343Z,8.37
2023-11-09T12:43:57.364Z,8.43
2023-11-09T12:46:28.854Z,8.51
2023-11-09T12:49:00.541Z,8.52
2023-11-09T12:51:32.129Z,8.49
2023-11-09T12:54:03.820Z,8.60
2023-11-09T12:56:36.605Z,8.56
2023-11-09T12:59:08.234Z,8.51
2023-11-09T13:01:40.264Z,8.45
2023-11-09T13:04:14.809Z,8.54
2023-11-09T13:06:47.431Z,8.31
2023-11-09T13:09:19.872Z,8.44
2023-11-09T13:11:51.505Z,8.35
2023-11-09T13:14:22.982Z,8.44
2023-11-09T13:16:58.410Z,8.81
2023-11-09T13:19:29.896Z,8.74
2023-11-09T13:22:01.442Z,8.69
2023-11-09T13:24:34.832Z,8.81
2023-11-09T13:27:06.941Z,8.88
2023-11-09T13:29:39.840Z,8.66
2023-11-09T13:32:14.554Z,8.58
2023-11-09T13:34:46.167Z,8.65
2023-11-09T13:37:17.748Z,8.50
2023-11-09T13:39:49.239Z,8.47
2023-11-09T13:42:20.719Z,8.61
2023-11-09T13:44:52.226Z,8.59
2023-11-09T13:47:23.966Z,8.63
2023-11-09T13:50:01.350Z,8.65
2023-11-09T13:52:32.977Z,8.49
2023-11-09T13:55:05.053Z,8.40
2023-11-09T13:57:36.597Z,8.52
2023-11-09T14:00:08.755Z,8.55
2023-11-09T14:05:36.704Z,8.81
2023-11-09T14:08:09.338Z,8.66
2023-11-09T14:10:40.827Z,8.76
2023-11-09T14:13:12.319Z,9.01
2023-11-09T14:15:43.960Z,8.98
2023-11-09T14:18:15.899Z,9.00
2023-11-09T14:20:47.493Z,9.08
2023-11-09T14:23:20.544Z,9.00
2023-11-09T14:25:52.225Z,8.86
2023-11-09T14:28:23.836Z,8.73
2023-11-09T14:30:55.376Z,8.89
2023-11-09T14:41:23.628Z,8.52
2023-11-09T14:43:55.163Z,8.62
2023-11-09T14:46:26.716Z,8.46
2023-11-09T14:48:58.363Z,8.42
2023-11-09T14:51:29.895Z,8.66
2023-11-09T14:54:01.457Z,8.63
2023-11-09T14:56:33.073Z,8.38
2023-11-09T14:59:06.346Z,8.37
2023-11-09T15:01:38.155Z,8.36
2023-11-09T15:04:09.780Z,8.46
2023-11-09T15:06:41.407Z,8.52
2023-11-09T15:09:13.325Z,8.29
2023-11-09T15:11:47.307Z,8.18
2023-11-09T15:14:18.858Z,8.51
2023-11-09T15:16:50.470Z,8.69
2023-11-09T15:19:22.063Z,8.71
2023-11-09T15:21:53.566Z,8.97
2023-11-09T15:24:25.082Z,8.68
2023-11-09T15:26:56.976Z,8.38
2023-11-09T15:29:28.528Z,8.35
2023-11-09T15:32:00.167Z,8.26
2023-11-09T15:34:31.869Z,8.28
2023-11-09T15:37:03.636Z,8.41
2023-11-09T15:39:52.213Z,8.41
2023-11-09T15:42:26.719Z,8.29
2023-11-09T15:44:58.402Z,8.10
2023-11-09T15:47:29.978Z,7.97
2023-11-09T15:50:01.517Z,7.97
2023-11-09T15:52:33.759Z,7.95
2023-11-09T15:55:07.570Z,7.93
2023-11-09T15:57:39.383Z,7.97
2023-11-09T16:00:11.295Z,7.88
2023-11-09T16:02:43.965Z,7.83
2023-11-09T16:05:17.549Z,7.88
2023-11-09T16:07:57.288Z,7.84
2023-11-09T16:10:29.079Z,7.82
2023-11-09T16:13:00.727Z,7.84
2023-11-09T16:15:32.272Z,7.86
2023-11-09T16:18:04.081Z,8.00
2023-11-09T16:20:35.740Z,7.98
2023-11-09T16:23:07.365Z,7.99
2023-11-09T16:25:42.210Z,8.03
2023-11-09T16:28:13.989Z,8.05
2023-11-09T16:30:45.651Z,8.00
2023-11-09T16:33:17.283Z,7.96
2023-11-09T16:35:48.963Z,8.05
2023-11-09T16:38:20.525Z,7.98
2023-11-09T16:40:52.082Z,8.10
2023-11-09T16:43:23.615Z,8.22
2023-11-09T16:45:55.144Z,8.03
2023-11-09T16:48:26.671Z,7.98
2023-11-09T16:50:58.132Z,7.98
2023-11-09T16:53:29.642Z,8.02
2023-11-09T16:56:01.168Z,8.02
2023-11-09T16:58:32.701Z,8.01
2023-11-09T17:01:07.531Z,8.02
2023-11-09T17:03:39.356Z,8.02
2023-11-09T17:06:11.199Z,8.00
2023-11-09T17:08:42.725Z,8.12
2023-11-09T17:11:14.464Z,8.15
2023-11-09T17:13:46.027Z,8.17
2023-11-09T17:16:17.587Z,8.12
2023-11-09T17:18:49.209Z,8.34
2023-11-09T17:21:21.060Z,8.52
2023-11-09T17:23:52.539Z,8.31
2023-11-09T17:26:24.016Z,8.09
2023-11-09T17:28:55.513Z,8.02
2023-11-09T17:31:27.026Z,7.95
2023-11-09T17:33:58.629Z,8.02
2023-11-09T17:36:30.239Z,8.04
2023-11-09T17:39:01.752Z,8.00
2023-11-09T17:41:33.249Z,8.05
2023-11-09T17:44:04.920Z,8.12
2023-11-09T17:46:39.283Z,8.15
2023-11-09T17:49:10.808Z,8.14
2023-11-09T17:51:42.303Z,8.06
2023-11-09T17:54:13.833Z,8.18
2023-11-09T17:56:45.713Z,8.32
2023-11-09T17:59:17.308Z,8.30
2023-11-09T18:01:48.940Z,8.24
2023-11-09T18:04:20.705Z,8.20
2023-11-09T18:06:52.208Z,8.23
2023-11-09T18:09:23.714Z,8.36
2023-11-09T18:11:57.228Z,8.36
2023-11-09T18:14:29.484Z,8.16
2023-11-09T18:17:01.166Z,8.02
2023-11-09T18:19:32.735Z,8.05
2023-11-09T18:22:04.526Z,7.97
2023-11-09T18:24:39.313Z,8.03
2023-11-09T18:27:13.817Z,8.16
2023-11-09T18:29:45.403Z,8.11
2023-11-09T18:32:17.080Z,8.09
2023-11-09T18:34:48.624Z,8.11
2023-11-09T18:37:20.317Z,8.11
2023-11-09T18:39:51.821Z,8.12
2023-11-09T18:42:23.364Z,8.11
2023-11-09T18:44:54.907Z,8.19
2023-11-09T18:47:26.628Z,8.18
2023-11-09T18:52:32.910Z,8.14
2023-11-09T18:55:04.804Z,8.11
2023-11-09T18:57:36.343Z,8.17
2023-11-09T19:00:08.411Z,8.10
2023-11-09T19:05:17.503Z,8.23
2023-11-09T19:07:49.241Z,8.27
2023-11-09T19:10:20.885Z,8.32
2023-11-09T19:12:52.581Z,8.39
2023-11-09T19:15:24.140Z,8.34
2023-11-09T19:17:55.738Z,8.36
2023-11-09T19:23:02.150Z,8.57
2023-11-09T19:25:33.737Z,8.66
2023-11-09T19:28:05.315Z,8.83
2023-11-09T19:30:37.019Z,8.80
2023-11-09T19:33:09.467Z,8.84
2023-11-09T19:35:41.198Z,8.96
2023-11-09T19:38:13.067Z,9.06
2023-11-09T19:40:46.033Z,8.99
2023-11-09T19:43:17.569Z,9.00
2023-11-09T19:45:49.210Z,8.96
2023-11-09T19:48:21.707Z,8.94
2023-11-09T19:50:53.821Z,9.01
2023-11-09T19:53:25.521Z,8.95
2023-11-09T19:55:57.087Z,8.95
2023-11-09T19:58:28.658Z,8.76
2023-11-09T20:01:00.203Z,8.74
2023-11-09T20:03:31.881Z,8.67
2023-11-09T20:06:03.550Z,8.64
2023-11-09T20:08:35.158Z,8.76
2023-11-09T20:11:07.533Z,8.69
2023-11-09T20:13:39.090Z,8.82
2023-11-09T20:16:10.670Z,8.88
2023-11-09T20:18:42.250Z,8.84
2023-11-09T20:21:13.802Z,9.04
2023-11-09T20:23:48.836Z,9.04
2023-11-09T20:26:20.823Z,8.83
2023-11-09T20:28:52.930Z,8.94
2023-11-09T20:31:24.703Z,8.90
2023-11-09T20:33:57.171Z,8.92
2023-11-09T20:36:28.908Z,8.86
2023-11-09T20:39:00.864Z,8.87
2023-11-09T20:41:32.467Z,8.99
2023-11-09T20:44:04.038Z,8.95
2023-11-09T20:46:35.858Z,9.03
2023-11-09T20:49:07.666Z,9.02
2023-11-09T20:51:39.314Z,9.20
2023-11-09T20:54:10.910Z,9.00
2023-11-09T20:56:42.634Z,8.94
2023-11-09T20:59:14.219Z,8.97
2023-11-09T21:01:46.468Z,8.61
2023-11-09T21:04:18.195Z,8.62
2023-11-09T21:06:50.217Z,8.85
2023-11-09T21:09:23.310Z,8.64
2023-11-09T21:11:56.730Z,8.47
2023-11-09T21:14:28.294Z,8.46
2023-11-09T21:16:59.828Z,8.50
2023-11-09T21:19:31.340Z,8.59
2023-11-09T21:22:03.006Z,8.64
2023-11-09T21:24:34.605Z,8.69
2023-11-09T21:27:06.215Z,8.67
2023-11-09T21:29:37.749Z,8.71
2023-11-09T21:32:09.281Z,8.70
2023-11-09T21:34:41.311Z,8.64
2023-11-09T21:37:13.110Z,8.70
2023-11-09T21:39:44.818Z,8.77
2023-11-09T21:42:16.575Z,8.73
2023-11-09T21:44:48.127Z,8.77
2023-11-09T21:47:19.690Z,8.68
2023-11-09T21:49:51.224Z,8.62
2023-11-09T21:52:22.755Z,8.61
2023-11-09T21:54:54.294Z,8.67
2023-11-09T21:57:28.315Z,8.78
2023-11-09T21:59:59.864Z,8.79
2023-11-09T22:02:31.473Z,8.66
2023-11-09T22:05:03.033Z,8.62
2023-11-09T22:07:37.624Z,8.51
2023-11-09T22:10:09.946Z,8.25
2023-11-09T22:12:42.133Z,8.33
2023-11-09T22:15:14.187Z,8.10
2023-11-09T22:17:52.248Z,8.14
2023-11-09T22:20:23.767Z,8.13
2023-11-09T22:22:55.329Z,8.20
2023-11-09T22:25:26.875Z,8.34
2023-11-09T22:27:58.436Z,8.22
2023-11-09T22:30:30.034Z,8.33
2023-11-09T22:33:01.660Z,8.36
2023-11-09T22:35:33.236Z,8.24
2023-11-09T22:38:04.767Z,8.23
2023-11-09T22:40:39.787Z,8.06
2023-11-09T22:43:11.277Z,8.16
2023-11-09T22:45:42.809Z,8.10
2023-11-09T22:48:14.768Z,8.12
2023-11-09T22:50:47.664Z,8.35
2023-11-09T22:53:19.229Z,8.20
2023-11-09T22:55:50.856Z,8.27
2023-11-09T22:58:22.382Z,8.26
2023-11-09T23:00:53.879Z,8.37
2023-11-09T23:03:25.497Z,8.38
2023-11-09T23:05:57.042Z,8.37
2023-11-09T23:08:28.599Z,8.29
2023-11-09T23:11:00.110Z,8.38
2023-11-09T23:13:31.654Z,8.45
2023-11-09T23:16:03.335Z,8.53
2023-11-09T23:18:34.900Z,8.58
2023-11-09T23:21:06.463Z,8.65
2023-11-09T23:23:37.980Z,8.67
2023-11-09T23:26:10.032Z,8.83
2023-11-09T23:28:42.977Z,8.75
2023-11-09T23:31:14.521Z,8.71
2023-11-09T23:33:46.135Z,8.68
2023-11-09T23:36:17.690Z,8.65
2023-11-09T23:38:49.253Z,8.67
2023-11-09T23:41:20.800Z,8.40
2023-11-09T23:43:52.338Z,8.41
2023-11-09T23:46:23.855Z,8.26
2023-11-09T23:48:55.364Z,8.25
2023-11-09T23:51:26.891Z,8.11
2023-11-09T23:53:58.568Z,8.07
2023-11-09T23:56:30.140Z,7.99
2023-11-09T23:59:01.698Z,8.05
